sensor_id;sensor_type;location;lat;lon;timestamp;temperature;humidity
6758;DHT22;3416;53.074;8.822;2023-12-20T00:00:35;6.90;99.90
6758;DHT22;3416;53.074;8.822;2023-12-20T00:03:03;7.00;99.90
6758;DHT22;3416;53.074;8.822;2023-12-20T00:05:30;6.90;99.90
6758;DHT22;3416;53.074;8.822;2023-12-20T00:07:59;6.80;99.90
6758;DHT22;3416;53.074;8.822;2023-12-20T00:10:26;6.90;99.90
6758;DHT22;3416;53.074;8.822;2023-12-20T00:12:52;6.80;99.90
6758;DHT22;3416;53.074;8.822;2023-12-20T00:15:21;6.80;99.90
6758;DHT22;3416;53.074;8.822;2023-12-20T00:17:48;6.80;99.90
6758;DHT22;3416;53.074;8.822;2023-12-20T00:20:15;6.80;99.90
6758;DHT22;3416;53.074;8.822;2023-12-20T00:22:42;6.80;99.90
6758;DHT22;3416;53.074;8.822;2023-12-20T00:25:10;6.80;99.90
6758;DHT22;3416;53.074;8.822;2023-12-20T00:27:37;6.70;99.90
6758;DHT22;3416;53.074;8.822;2023-12-20T00:30:05;6.70;99.90
6758;DHT22;3416;53.074;8.822;2023-12-20T00:32:34;6.70;99.90
6758;DHT22;3416;53.074;8.822;2023-12-20T00:35:01;6.60;99.90
6758;DHT22;3416;53.074;8.822;2023-12-20T00:37:28;6.60;99.90
6758;DHT22;3416;53.074;8.822;2023-12-20T00:39:55;6.60;99.90
6758;DHT22;3416;53.074;8.822;2023-12-20T00:42:22;6.60;99.90
6758;DHT22;3416;53.074;8.822;2023-12-20T00:44:49;6.60;99.90
6758;DHT22;3416;53.074;8.822;2023-12-20T00:47:17;6.50;99.90
6758;DHT22;3416;53.074;8.822;2023-12-20T00:49:45;6.50;99.90
6758;DHT22;3416;53.074;8.822;2023-12-20T00:52:12;6.60;99.90
6758;DHT22;3416;53.074;8.822;2023-12-20T00:54:39;6.50;99.90
6758;DHT22;3416;53.074;8.822;2023-12-20T00:57:07;6.50;99.90
6758;DHT22;3416;53.074;8.822;2023-12-20T00:59:34;6.50;99.90
6758;DHT22;3416;53.074;8.822;2023-12-20T01:02:02;6.40;99.90
6758;DHT22;3416;53.074;8.822;2023-12-20T01:04:29;6.40;99.90
6758;DHT22;3416;53.074;8.822;2023-12-20T01:06:57;6.40;99.90
6758;DHT22;3416;53.074;8.822;2023-12-20T01:09:24;6.40;99.90
6758;DHT22;3416;53.074;8.822;2023-12-20T01:11:52;6.40;99.90
6758;DHT22;3416;53.074;8.822;2023-12-20T01:14:21;6.30;99.90
6758;DHT22;3416;53.074;8.822;2023-12-20T01:16:48;6.30;99.90
6758;DHT22;3416;53.074;8.822;2023-12-20T01:19:16;6.30;99.90
6758;DHT22;3416;53.074;8.822;2023-12-20T01:21:42;6.30;99.90
6758;DHT22;3416;53.074;8.822;2023-12-20T01:24:11;6.30;99.90
6758;DHT22;3416;53.074;8.822;2023-12-20T01:26:38;6.30;99.90
6758;DHT22;3416;53.074;8.822;2023-12-20T01:29:05;6.30;99.90
6758;DHT22;3416;53.074;8.822;2023-12-20T01:31:33;6.30;99.90
6758;DHT22;3416;53.074;8.822;2023-12-20T01:34:00;6.30;99.90
6758;DHT22;3416;53.074;8.822;2023-12-20T01:36:27;6.20;99.90
6758;DHT22;3416;53.074;8.822;2023-12-20T01:38:54;6.20;99.90
6758;DHT22;3416;53.074;8.822;2023-12-20T01:41:23;6.20;99.90
6758;DHT22;3416;53.074;8.822;2023-12-20T01:43:50;6.20;99.90
6758;DHT22;3416;53.074;8.822;2023-12-20T01:46:19;6.30;99.90
6758;DHT22;3416;53.074;8.822;2023-12-20T01:48:47;6.30;99.90
6758;DHT22;3416;53.074;8.822;2023-12-20T01:51:15;6.40;99.90
6758;DHT22;3416;53.074;8.822;2023-12-20T01:53:43;6.40;99.90
6758;DHT22;3416;53.074;8.822;2023-12-20T01:56:11;6.40;99.90
6758;DHT22;3416;53.074;8.822;2023-12-20T01:58:47;6.40;99.90
6758;DHT22;3416;53.074;8.822;2023-12-20T02:01:14;6.30;99.90
6758;DHT22;3416;53.074;8.822;2023-12-20T02:03:42;6.30;99.90
6758;DHT22;3416;53.074;8.822;2023-12-20T02:06:09;6.30;99.90
6758;DHT22;3416;53.074;8.822;2023-12-20T02:08:36;6.30;99.90
6758;DHT22;3416;53.074;8.822;2023-12-20T02:11:04;6.30;99.90
6758;DHT22;3416;53.074;8.822;2023-12-20T02:13:31;6.30;99.90
6758;DHT22;3416;53.074;8.822;2023-12-20T02:15:59;6.30;99.90
6758;DHT22;3416;53.074;8.822;2023-12-20T02:18:26;6.30;99.90
6758;DHT22;3416;53.074;8.822;2023-12-20T02:20:53;6.20;99.90
6758;DHT22;3416;53.074;8.822;2023-12-20T02:23:22;6.20;99.90
6758;DHT22;3416;53.074;8.822;2023-12-20T02:25:50;6.20;99.90
6758;DHT22;3416;53.074;8.822;2023-12-20T02:28:17;6.20;99.90
6758;DHT22;3416;53.074;8.822;2023-12-20T02:30:45;6.20;99.90
6758;DHT22;3416;53.074;8.822;2023-12-20T02:33:12;6.20;99.90
6758;DHT22;3416;53.074;8.822;2023-12-20T02:35:41;6.20;99.90
6758;DHT22;3416;53.074;8.822;2023-12-20T02:38:07;6.20;99.90
6758;DHT22;3416;53.074;8.822;2023-12-20T02:40:36;6.20;99.90
6758;DHT22;3416;53.074;8.822;2023-12-20T02:43:03;6.20;99.90
6758;DHT22;3416;53.074;8.822;2023-12-20T02:45:32;6.20;99.90
6758;DHT22;3416;53.074;8.822;2023-12-20T02:47:59;6.20;99.90
6758;DHT22;3416;53.074;8.822;2023-12-20T02:50:26;6.20;99.90
6758;DHT22;3416;53.074;8.822;2023-12-20T02:52:53;6.20;99.90
6758;DHT22;3416;53.074;8.822;2023-12-20T02:55:20;6.30;99.90
6758;DHT22;3416;53.074;8.822;2023-12-20T02:57:49;6.30;99.90
6758;DHT22;3416;53.074;8.822;2023-12-20T03:00:16;6.30;99.90
6758;DHT22;3416;53.074;8.822;2023-12-20T03:02:43;6.40;99.90
6758;DHT22;3416;53.074;8.822;2023-12-20T03:05:10;6.40;99.90
6758;DHT22;3416;53.074;8.822;2023-12-20T03:07:37;6.50;99.90
6758;DHT22;3416;53.074;8.822;2023-12-20T03:10:05;6.40;99.90
6758;DHT22;3416;53.074;8.822;2023-12-20T03:12:33;6.50;99.90
6758;DHT22;3416;53.074;8.822;2023-12-20T03:15:01;6.50;99.90
6758;DHT22;3416;53.074;8.822;2023-12-20T03:17:28;6.50;99.90
6758;DHT22;3416;53.074;8.822;2023-12-20T03:19:55;6.50;99.90
6758;DHT22;3416;53.074;8.822;2023-12-20T03:22:22;6.60;99.90
6758;DHT22;3416;53.074;8.822;2023-12-20T03:24:57;6.60;99.90
6758;DHT22;3416;53.074;8.822;2023-12-20T03:27:24;6.60;99.90
6758;DHT22;3416;53.074;8.822;2023-12-20T03:29:58;6.50;99.90
6758;DHT22;3416;53.074;8.822;2023-12-20T03:32:26;6.60;99.90
6758;DHT22;3416;53.074;8.822;2023-12-20T03:34:55;6.60;99.90
6758;DHT22;3416;53.074;8.822;2023-12-20T03:37:23;6.60;99.90
6758;DHT22;3416;53.074;8.822;2023-12-20T03:39:50;6.60;99.90
6758;DHT22;3416;53.074;8.822;2023-12-20T03:42:17;6.60;99.90
6758;DHT22;3416;53.074;8.822;2023-12-20T03:44:44;6.60;99.90
6758;DHT22;3416;53.074;8.822;2023-12-20T03:47:11;6.60;99.90
6758;DHT22;3416;53.074;8.822;2023-12-20T03:49:40;6.60;99.90
6758;DHT22;3416;53.074;8.822;2023-12-20T03:52:07;6.60;99.90
6758;DHT22;3416;53.074;8.822;2023-12-20T03:54:35;6.60;99.90
6758;DHT22;3416;53.074;8.822;2023-12-20T03:57:03;6.70;99.90
6758;DHT22;3416;53.074;8.822;2023-12-20T03:59:31;6.70;99.90
6758;DHT22;3416;53.074;8.822;2023-12-20T04:02:01;6.70;99.90
6758;DHT22;3416;53.074;8.822;2023-12-20T04:04:28;6.70;99.90
6758;DHT22;3416;53.074;8.822;2023-12-20T04:06:57;6.70;99.90
6758;DHT22;3416;53.074;8.822;2023-12-20T04:09:23;6.70;99.90
6758;DHT22;3416;53.074;8.822;2023-12-20T04:11:51;6.70;99.90
6758;DHT22;3416;53.074;8.822;2023-12-20T04:14:18;6.70;99.90
6758;DHT22;3416;53.074;8.822;2023-12-20T04:16:45;6.70;99.90
6758;DHT22;3416;53.074;8.822;2023-12-20T04:19:12;6.70;99.90
6758;DHT22;3416;53.074;8.822;2023-12-20T04:21:41;6.70;99.90
6758;DHT22;3416;53.074;8.822;2023-12-20T04:24:09;6.70;99.90
6758;DHT22;3416;53.074;8.822;2023-12-20T04:26:36;6.70;99.90
6758;DHT22;3416;53.074;8.822;2023-12-20T04:29:03;6.70;99.90
6758;DHT22;3416;53.074;8.822;2023-12-20T04:31:30;6.80;99.90
6758;DHT22;3416;53.074;8.822;2023-12-20T04:33:57;6.80;99.90
6758;DHT22;3416;53.074;8.822;2023-12-20T04:36:24;6.80;99.90
6758;DHT22;3416;53.074;8.822;2023-12-20T04:38:52;6.80;99.90
6758;DHT22;3416;53.074;8.822;2023-12-20T04:41:21;6.70;99.90
6758;DHT22;3416;53.074;8.822;2023-12-20T04:43:49;6.70;99.90
6758;DHT22;3416;53.074;8.822;2023-12-20T04:46:16;6.80;99.90
6758;DHT22;3416;53.074;8.822;2023-12-20T04:48:43;6.70;99.90
6758;DHT22;3416;53.074;8.822;2023-12-20T04:51:11;6.70;99.90
6758;DHT22;3416;53.074;8.822;2023-12-20T04:53:38;6.70;99.90
6758;DHT22;3416;53.074;8.822;2023-12-20T04:56:05;6.70;99.90
6758;DHT22;3416;53.074;8.822;2023-12-20T04:58:36;6.70;99.90
6758;DHT22;3416;53.074;8.822;2023-12-20T05:01:04;6.70;99.90
6758;DHT22;3416;53.074;8.822;2023-12-20T05:03:32;6.80;99.90
6758;DHT22;3416;53.074;8.822;2023-12-20T05:05:59;6.80;99.90
6758;DHT22;3416;53.074;8.822;2023-12-20T05:08:26;6.80;99.90
6758;DHT22;3416;53.074;8.822;2023-12-20T05:10:54;6.80;99.90
6758;DHT22;3416;53.074;8.822;2023-12-20T05:13:21;6.80;99.90
6758;DHT22;3416;53.074;8.822;2023-12-20T05:15:50;6.80;99.90
6758;DHT22;3416;53.074;8.822;2023-12-20T05:18:17;6.80;99.90
6758;DHT22;3416;53.074;8.822;2023-12-20T05:20:44;6.80;99.90
6758;DHT22;3416;53.074;8.822;2023-12-20T05:23:12;6.80;99.90
6758;DHT22;3416;53.074;8.822;2023-12-20T05:25:40;6.90;99.90
6758;DHT22;3416;53.074;8.822;2023-12-20T05:28:07;6.80;99.90
6758;DHT22;3416;53.074;8.822;2023-12-20T05:30:34;6.90;99.90
6758;DHT22;3416;53.074;8.822;2023-12-20T05:33:03;6.90;99.90
6758;DHT22;3416;53.074;8.822;2023-12-20T05:35:30;6.80;99.90
6758;DHT22;3416;53.074;8.822;2023-12-20T05:37:57;6.90;99.90
6758;DHT22;3416;53.074;8.822;2023-12-20T05:40:24;6.90;99.90
6758;DHT22;3416;53.074;8.822;2023-12-20T05:42:51;6.90;99.90
6758;DHT22;3416;53.074;8.822;2023-12-20T05:45:19;6.80;99.90
6758;DHT22;3416;53.074;8.822;2023-12-20T05:47:46;6.80;99.90
6758;DHT22;3416;53.074;8.822;2023-12-20T05:50:15;6.80;99.90
6758;DHT22;3416;53.074;8.822;2023-12-20T05:52:42;6.80;99.90
6758;DHT22;3416;53.074;8.822;2023-12-20T05:55:15;6.90;99.90
6758;DHT22;3416;53.074;8.822;2023-12-20T05:57:42;6.80;99.90
6758;DHT22;3416;53.074;8.822;2023-12-20T06:00:11;7.00;99.90
6758;DHT22;3416;53.074;8.822;2023-12-20T06:02:38;6.90;99.90
6758;DHT22;3416;53.074;8.822;2023-12-20T06:05:06;6.90;99.90
6758;DHT22;3416;53.074;8.822;2023-12-20T06:07:35;7.00;99.90
6758;DHT22;3416;53.074;8.822;2023-12-20T06:10:02;7.00;99.90
6758;DHT22;3416;53.074;8.822;2023-12-20T06:12:29;7.00;99.90
6758;DHT22;3416;53.074;8.822;2023-12-20T06:14:59;7.00;99.90
6758;DHT22;3416;53.074;8.822;2023-12-20T06:17:26;7.00;99.90
6758;DHT22;3416;53.074;8.822;2023-12-20T06:19:56;7.00;99.90
6758;DHT22;3416;53.074;8.822;2023-12-20T06:22:23;7.00;99.90
6758;DHT22;3416;53.074;8.822;2023-12-20T06:24:53;7.10;99.90
6758;DHT22;3416;53.074;8.822;2023-12-20T06:27:20;7.20;99.90
6758;DHT22;3416;53.074;8.822;2023-12-20T06:29:47;7.20;99.90
6758;DHT22;3416;53.074;8.822;2023-12-20T06:32:14;7.20;99.90
6758;DHT22;3416;53.074;8.822;2023-12-20T06:34:41;7.20;99.90
6758;DHT22;3416;53.074;8.822;2023-12-20T06:37:08;7.20;99.90
6758;DHT22;3416;53.074;8.822;2023-12-20T06:39:35;7.20;99.90
6758;DHT22;3416;53.074;8.822;2023-12-20T06:42:04;7.20;99.90
6758;DHT22;3416;53.074;8.822;2023-12-20T06:44:31;7.20;99.90
6758;DHT22;3416;53.074;8.822;2023-12-20T06:46:58;7.20;99.90
6758;DHT22;3416;53.074;8.822;2023-12-20T06:49:25;7.30;99.90
6758;DHT22;3416;53.074;8.822;2023-12-20T06:51:54;7.30;99.90
6758;DHT22;3416;53.074;8.822;2023-12-20T06:54:22;7.30;99.90
6758;DHT22;3416;53.074;8.822;2023-12-20T06:56:49;7.30;99.90
6758;DHT22;3416;53.074;8.822;2023-12-20T06:59:17;7.30;99.90
6758;DHT22;3416;53.074;8.822;2023-12-20T07:01:47;7.30;99.90
6758;DHT22;3416;53.074;8.822;2023-12-20T07:04:15;7.30;99.90
6758;DHT22;3416;53.074;8.822;2023-12-20T07:06:45;7.30;99.90
6758;DHT22;3416;53.074;8.822;2023-12-20T07:09:13;7.30;99.90
6758;DHT22;3416;53.074;8.822;2023-12-20T07:11:40;7.40;99.90
6758;DHT22;3416;53.074;8.822;2023-12-20T07:14:08;7.40;99.90
6758;DHT22;3416;53.074;8.822;2023-12-20T07:16:36;7.40;99.90
6758;DHT22;3416;53.074;8.822;2023-12-20T07:19:09;7.40;99.90
6758;DHT22;3416;53.074;8.822;2023-12-20T07:21:36;7.40;99.90
6758;DHT22;3416;53.074;8.822;2023-12-20T07:24:05;7.40;99.90
6758;DHT22;3416;53.074;8.822;2023-12-20T07:26:31;7.40;99.90
6758;DHT22;3416;53.074;8.822;2023-12-20T07:28:59;7.40;99.90
6758;DHT22;3416;53.074;8.822;2023-12-20T07:31:26;7.40;99.90
6758;DHT22;3416;53.074;8.822;2023-12-20T07:34:01;7.40;99.90
6758;DHT22;3416;53.074;8.822;2023-12-20T07:36:35;7.50;99.90
6758;DHT22;3416;53.074;8.822;2023-12-20T07:39:02;7.50;99.90
6758;DHT22;3416;53.074;8.822;2023-12-20T07:41:30;7.50;99.90
6758;DHT22;3416;53.074;8.822;2023-12-20T07:43:57;7.50;99.90
6758;DHT22;3416;53.074;8.822;2023-12-20T07:46:25;7.50;99.90
6758;DHT22;3416;53.074;8.822;2023-12-20T07:48:52;7.60;99.90
6758;DHT22;3416;53.074;8.822;2023-12-20T07:51:21;7.60;99.90
6758;DHT22;3416;53.074;8.822;2023-12-20T07:53:49;7.60;99.90
6758;DHT22;3416;53.074;8.822;2023-12-20T07:56:16;7.50;99.90
6758;DHT22;3416;53.074;8.822;2023-12-20T07:58:43;7.60;99.90
6758;DHT22;3416;53.074;8.822;2023-12-20T08:01:11;7.60;99.90
6758;DHT22;3416;53.074;8.822;2023-12-20T08:03:40;7.60;99.90
6758;DHT22;3416;53.074;8.822;2023-12-20T08:06:07;7.60;99.90
6758;DHT22;3416;53.074;8.822;2023-12-20T08:08:35;7.50;99.90
6758;DHT22;3416;53.074;8.822;2023-12-20T08:11:03;7.50;99.90
6758;DHT22;3416;53.074;8.822;2023-12-20T08:13:30;7.50;99.90
6758;DHT22;3416;53.074;8.822;2023-12-20T08:15:57;7.50;99.90
6758;DHT22;3416;53.074;8.822;2023-12-20T08:18:24;7.80;99.90
6758;DHT22;3416;53.074;8.822;2023-12-20T08:20:52;7.80;99.90
6758;DHT22;3416;53.074;8.822;2023-12-20T08:23:19;7.80;99.90
6758;DHT22;3416;53.074;8.822;2023-12-20T08:25:48;7.80;99.90
6758;DHT22;3416;53.074;8.822;2023-12-20T08:28:16;7.80;99.90
6758;DHT22;3416;53.074;8.822;2023-12-20T08:30:43;7.80;99.90
6758;DHT22;3416;53.074;8.822;2023-12-20T08:33:10;7.80;99.90
6758;DHT22;3416;53.074;8.822;2023-12-20T08:35:38;7.80;99.90
6758;DHT22;3416;53.074;8.822;2023-12-20T08:38:06;7.90;99.90
6758;DHT22;3416;53.074;8.822;2023-12-20T08:40:33;7.90;99.90
6758;DHT22;3416;53.074;8.822;2023-12-20T08:43:01;7.90;99.90
6758;DHT22;3416;53.074;8.822;2023-12-20T08:45:29;7.90;99.90
6758;DHT22;3416;53.074;8.822;2023-12-20T08:47:56;7.90;99.90
6758;DHT22;3416;53.074;8.822;2023-12-20T08:50:23;7.90;99.90
6758;DHT22;3416;53.074;8.822;2023-12-20T08:52:50;7.90;99.90
6758;DHT22;3416;53.074;8.822;2023-12-20T08:55:18;8.00;99.90
6758;DHT22;3416;53.074;8.822;2023-12-20T08:57:45;8.00;99.90
6758;DHT22;3416;53.074;8.822;2023-12-20T09:00:14;8.00;99.90
6758;DHT22;3416;53.074;8.822;2023-12-20T09:02:41;8.00;99.90
6758;DHT22;3416;53.074;8.822;2023-12-20T09:05:10;8.00;99.90
6758;DHT22;3416;53.074;8.822;2023-12-20T09:07:37;7.90;99.90
6758;DHT22;3416;53.074;8.822;2023-12-20T09:10:06;7.90;99.90
6758;DHT22;3416;53.074;8.822;2023-12-20T09:12:33;7.90;99.90
6758;DHT22;3416;53.074;8.822;2023-12-20T09:15:00;7.90;99.90
6758;DHT22;3416;53.074;8.822;2023-12-20T09:17:30;7.80;99.90
6758;DHT22;3416;53.074;8.822;2023-12-20T09:19:57;7.70;99.90
6758;DHT22;3416;53.074;8.822;2023-12-20T09:22:26;7.70;99.90
6758;DHT22;3416;53.074;8.822;2023-12-20T09:24:53;7.70;99.90
6758;DHT22;3416;53.074;8.822;2023-12-20T09:27:20;7.70;99.90
6758;DHT22;3416;53.074;8.822;2023-12-20T09:29:47;7.70;99.90
6758;DHT22;3416;53.074;8.822;2023-12-20T09:32:15;7.70;99.90
6758;DHT22;3416;53.074;8.822;2023-12-20T09:34:43;7.70;99.90
6758;DHT22;3416;53.074;8.822;2023-12-20T09:37:10;7.70;99.90
6758;DHT22;3416;53.074;8.822;2023-12-20T09:39:37;7.70;99.90
6758;DHT22;3416;53.074;8.822;2023-12-20T09:42:06;7.70;99.90
6758;DHT22;3416;53.074;8.822;2023-12-20T09:44:34;7.80;99.90
6758;DHT22;3416;53.074;8.822;2023-12-20T09:47:03;7.80;99.90
6758;DHT22;3416;53.074;8.822;2023-12-20T09:49:30;7.90;99.90
6758;DHT22;3416;53.074;8.822;2023-12-20T09:52:00;8.00;99.90
6758;DHT22;3416;53.074;8.822;2023-12-20T09:54:28;8.00;99.90
6758;DHT22;3416;53.074;8.822;2023-12-20T09:56:56;7.80;99.90
6758;DHT22;3416;53.074;8.822;2023-12-20T09:59:23;7.60;99.90
6758;DHT22;3416;53.074;8.822;2023-12-20T10:01:51;7.60;99.90
6758;DHT22;3416;53.074;8.822;2023-12-20T10:04:20;7.40;99.90
6758;DHT22;3416;53.074;8.822;2023-12-20T10:06:47;7.40;99.90
6758;DHT22;3416;53.074;8.822;2023-12-20T10:09:15;7.40;99.90
6758;DHT22;3416;53.074;8.822;2023-12-20T10:11:43;7.20;99.90
6758;DHT22;3416;53.074;8.822;2023-12-20T10:14:11;7.10;99.90
6758;DHT22;3416;53.074;8.822;2023-12-20T10:16:38;7.00;99.90
6758;DHT22;3416;53.074;8.822;2023-12-20T10:19:05;7.00;99.90
6758;DHT22;3416;53.074;8.822;2023-12-20T10:21:32;7.00;99.90
6758;DHT22;3416;53.074;8.822;2023-12-20T10:24:01;6.90;99.90
6758;DHT22;3416;53.074;8.822;2023-12-20T10:26:29;6.90;99.90
6758;DHT22;3416;53.074;8.822;2023-12-20T10:29:00;6.90;99.90
6758;DHT22;3416;53.074;8.822;2023-12-20T10:31:30;7.00;99.90
6758;DHT22;3416;53.074;8.822;2023-12-20T10:34:00;7.00;99.90
6758;DHT22;3416;53.074;8.822;2023-12-20T10:36:28;7.00;99.90
6758;DHT22;3416;53.074;8.822;2023-12-20T10:38:56;7.00;99.90
6758;DHT22;3416;53.074;8.822;2023-12-20T10:41:26;7.00;99.90
6758;DHT22;3416;53.074;8.822;2023-12-20T10:43:59;7.00;99.90
6758;DHT22;3416;53.074;8.822;2023-12-20T10:46:27;7.00;99.90
6758;DHT22;3416;53.074;8.822;2023-12-20T10:48:55;7.20;99.90
6758;DHT22;3416;53.074;8.822;2023-12-20T10:51:24;7.30;99.90
6758;DHT22;3416;53.074;8.822;2023-12-20T10:53:52;7.40;99.90
6758;DHT22;3416;53.074;8.822;2023-12-20T10:56:20;7.40;99.90
6758;DHT22;3416;53.074;8.822;2023-12-20T10:58:49;7.40;99.90
6758;DHT22;3416;53.074;8.822;2023-12-20T11:01:19;7.50;99.90
6758;DHT22;3416;53.074;8.822;2023-12-20T11:03:49;7.50;99.90
6758;DHT22;3416;53.074;8.822;2023-12-20T11:06:31;7.50;99.90
6758;DHT22;3416;53.074;8.822;2023-12-20T11:09:08;7.70;99.90
6758;DHT22;3416;53.074;8.822;2023-12-20T11:11:52;7.70;99.90
6758;DHT22;3416;53.074;8.822;2023-12-20T11:14:25;7.70;99.90
6758;DHT22;3416;53.074;8.822;2023-12-20T11:17:07;7.80;99.90
6758;DHT22;3416;53.074;8.822;2023-12-20T11:19:36;7.80;99.90
6758;DHT22;3416;53.074;8.822;2023-12-20T11:22:04;7.90;99.90
6758;DHT22;3416;53.074;8.822;2023-12-20T11:24:32;7.80;99.90
6758;DHT22;3416;53.074;8.822;2023-12-20T11:27:00;7.80;99.90
6758;DHT22;3416;53.074;8.822;2023-12-20T11:29:31;7.90;99.90
6758;DHT22;3416;53.074;8.822;2023-12-20T11:32:00;8.00;99.90
6758;DHT22;3416;53.074;8.822;2023-12-20T11:34:31;8.00;99.90
6758;DHT22;3416;53.074;8.822;2023-12-20T11:37:00;8.00;99.90
6758;DHT22;3416;53.074;8.822;2023-12-20T11:39:28;8.00;99.90
6758;DHT22;3416;53.074;8.822;2023-12-20T11:41:57;8.10;99.90
6758;DHT22;3416;53.074;8.822;2023-12-20T11:44:30;8.20;99.90
6758;DHT22;3416;53.074;8.822;2023-12-20T11:46:58;8.20;99.90
6758;DHT22;3416;53.074;8.822;2023-12-20T11:49:25;8.10;99.90
6758;DHT22;3416;53.074;8.822;2023-12-20T11:51:56;8.00;99.90
6758;DHT22;3416;53.074;8.822;2023-12-20T11:54:25;8.10;99.90
6758;DHT22;3416;53.074;8.822;2023-12-20T11:56:52;8.10;99.90
6758;DHT22;3416;53.074;8.822;2023-12-20T11:59:19;8.10;99.90
6758;DHT22;3416;53.074;8.822;2023-12-20T12:01:49;8.00;99.90
6758;DHT22;3416;53.074;8.822;2023-12-20T12:04:18;8.00;99.90
6758;DHT22;3416;53.074;8.822;2023-12-20T12:06:45;8.00;99.90
6758;DHT22;3416;53.074;8.822;2023-12-20T12:09:14;8.00;99.90
6758;DHT22;3416;53.074;8.822;2023-12-20T12:11:41;8.00;99.90
6758;DHT22;3416;53.074;8.822;2023-12-20T12:14:08;8.00;99.90
6758;DHT22;3416;53.074;8.822;2023-12-20T12:16:36;8.10;99.90
6758;DHT22;3416;53.074;8.822;2023-12-20T12:19:05;8.40;99.90
6758;DHT22;3416;53.074;8.822;2023-12-20T12:21:32;8.50;99.90
6758;DHT22;3416;53.074;8.822;2023-12-20T12:24:08;8.60;99.90
6758;DHT22;3416;53.074;8.822;2023-12-20T12:26:37;8.60;99.90
6758;DHT22;3416;53.074;8.822;2023-12-20T12:29:07;8.70;99.90
6758;DHT22;3416;53.074;8.822;2023-12-20T12:31:36;8.80;99.90
6758;DHT22;3416;53.074;8.822;2023-12-20T12:34:04;8.70;99.90
6758;DHT22;3416;53.074;8.822;2023-12-20T12:36:32;8.70;99.90
6758;DHT22;3416;53.074;8.822;2023-12-20T12:39:02;8.60;99.90
6758;DHT22;3416;53.074;8.822;2023-12-20T12:41:30;8.60;99.90
6758;DHT22;3416;53.074;8.822;2023-12-20T12:43:59;8.60;99.90
6758;DHT22;3416;53.074;8.822;2023-12-20T12:46:26;8.60;99.90
6758;DHT22;3416;53.074;8.822;2023-12-20T12:48:53;8.70;99.90
6758;DHT22;3416;53.074;8.822;2023-12-20T12:51:21;8.70;99.90
6758;DHT22;3416;53.074;8.822;2023-12-20T12:53:48;8.80;99.90
6758;DHT22;3416;53.074;8.822;2023-12-20T12:56:16;8.60;99.90
6758;DHT22;3416;53.074;8.822;2023-12-20T12:58:43;8.60;99.90
6758;DHT22;3416;53.074;8.822;2023-12-20T13:01:12;8.70;99.90
6758;DHT22;3416;53.074;8.822;2023-12-20T13:03:39;8.70;99.90
6758;DHT22;3416;53.074;8.822;2023-12-20T13:06:06;8.70;99.90
6758;DHT22;3416;53.074;8.822;2023-12-20T13:08:34;8.60;99.90
6758;DHT22;3416;53.074;8.822;2023-12-20T13:11:02;8.50;99.90
6758;DHT22;3416;53.074;8.822;2023-12-20T13:13:29;8.50;99.90
6758;DHT22;3416;53.074;8.822;2023-12-20T13:15:57;8.30;99.90
6758;DHT22;3416;53.074;8.822;2023-12-20T13:18:25;8.30;99.90
6758;DHT22;3416;53.074;8.822;2023-12-20T13:20:54;8.20;99.90
6758;DHT22;3416;53.074;8.822;2023-12-20T13:23:21;8.20;99.90
6758;DHT22;3416;53.074;8.822;2023-12-20T13:25:48;8.20;99.90
6758;DHT22;3416;53.074;8.822;2023-12-20T13:28:15;8.20;99.90
6758;DHT22;3416;53.074;8.822;2023-12-20T13:30:43;8.10;99.90
6758;DHT22;3416;53.074;8.822;2023-12-20T13:33:11;8.10;99.90
6758;DHT22;3416;53.074;8.822;2023-12-20T13:35:40;8.30;99.90
6758;DHT22;3416;53.074;8.822;2023-12-20T13:38:07;8.40;99.90
6758;DHT22;3416;53.074;8.822;2023-12-20T13:40:34;8.30;99.90
6758;DHT22;3416;53.074;8.822;2023-12-20T13:43:02;8.30;99.90
6758;DHT22;3416;53.074;8.822;2023-12-20T13:45:29;8.20;99.90
6758;DHT22;3416;53.074;8.822;2023-12-20T13:47:58;8.00;99.90
6758;DHT22;3416;53.074;8.822;2023-12-20T13:50:25;8.00;99.90
6758;DHT22;3416;53.074;8.822;2023-12-20T13:53:00;7.90;99.90
6758;DHT22;3416;53.074;8.822;2023-12-20T13:55:30;8.00;99.90
6758;DHT22;3416;53.074;8.822;2023-12-20T13:57:57;7.90;99.90
6758;DHT22;3416;53.074;8.822;2023-12-20T14:00:24;7.90;99.90
6758;DHT22;3416;53.074;8.822;2023-12-20T14:02:51;7.90;99.90
6758;DHT22;3416;53.074;8.822;2023-12-20T14:05:18;7.80;99.90
6758;DHT22;3416;53.074;8.822;2023-12-20T14:07:45;7.80;99.90
6758;DHT22;3416;53.074;8.822;2023-12-20T14:10:14;7.80;99.90
6758;DHT22;3416;53.074;8.822;2023-12-20T14:12:41;7.80;99.90
6758;DHT22;3416;53.074;8.822;2023-12-20T14:15:09;7.80;99.90
6758;DHT22;3416;53.074;8.822;2023-12-20T14:17:38;7.80;99.90
6758;DHT22;3416;53.074;8.822;2023-12-20T14:20:06;7.80;99.90
6758;DHT22;3416;53.074;8.822;2023-12-20T14:22:33;7.80;99.90
6758;DHT22;3416;53.074;8.822;2023-12-20T14:25:00;7.80;99.90
6758;DHT22;3416;53.074;8.822;2023-12-20T14:27:30;7.80;99.90
6758;DHT22;3416;53.074;8.822;2023-12-20T14:29:58;7.80;99.90
6758;DHT22;3416;53.074;8.822;2023-12-20T14:32:27;7.90;99.90
6758;DHT22;3416;53.074;8.822;2023-12-20T14:34:54;7.80;99.90
6758;DHT22;3416;53.074;8.822;2023-12-20T14:37:21;7.70;99.90
6758;DHT22;3416;53.074;8.822;2023-12-20T14:39:48;7.70;99.90
6758;DHT22;3416;53.074;8.822;2023-12-20T14:42:16;7.60;99.90
6758;DHT22;3416;53.074;8.822;2023-12-20T14:44:44;7.60;99.90
6758;DHT22;3416;53.074;8.822;2023-12-20T14:47:11;7.60;99.90
6758;DHT22;3416;53.074;8.822;2023-12-20T14:49:41;7.60;99.90
6758;DHT22;3416;53.074;8.822;2023-12-20T14:52:08;7.50;99.90
6758;DHT22;3416;53.074;8.822;2023-12-20T14:54:37;7.50;99.90
6758;DHT22;3416;53.074;8.822;2023-12-20T14:57:04;7.50;99.90
6758;DHT22;3416;53.074;8.822;2023-12-20T14:59:34;7.50;99.90
6758;DHT22;3416;53.074;8.822;2023-12-20T15:02:02;7.50;99.90
6758;DHT22;3416;53.074;8.822;2023-12-20T15:04:30;7.60;99.90
6758;DHT22;3416;53.074;8.822;2023-12-20T15:06:57;7.60;99.90
6758;DHT22;3416;53.074;8.822;2023-12-20T15:09:26;7.50;99.90
6758;DHT22;3416;53.074;8.822;2023-12-20T15:11:55;7.50;99.90
6758;DHT22;3416;53.074;8.822;2023-12-20T15:14:22;7.60;99.90
6758;DHT22;3416;53.074;8.822;2023-12-20T15:16:49;7.60;99.90
6758;DHT22;3416;53.074;8.822;2023-12-20T15:19:18;7.60;99.90
6758;DHT22;3416;53.074;8.822;2023-12-20T15:21:45;7.60;99.90
6758;DHT22;3416;53.074;8.822;2023-12-20T15:24:12;7.60;99.90
6758;DHT22;3416;53.074;8.822;2023-12-20T15:26:41;7.60;99.90
6758;DHT22;3416;53.074;8.822;2023-12-20T15:29:09;7.60;99.90
6758;DHT22;3416;53.074;8.822;2023-12-20T15:31:41;7.60;99.90
6758;DHT22;3416;53.074;8.822;2023-12-20T15:34:11;7.60;99.90
6758;DHT22;3416;53.074;8.822;2023-12-20T15:36:42;7.60;99.90
6758;DHT22;3416;53.074;8.822;2023-12-20T15:39:09;7.70;99.90
6758;DHT22;3416;53.074;8.822;2023-12-20T15:41:40;7.70;99.90
6758;DHT22;3416;53.074;8.822;2023-12-20T15:44:08;7.80;99.90
6758;DHT22;3416;53.074;8.822;2023-12-20T15:46:37;7.70;99.90
6758;DHT22;3416;53.074;8.822;2023-12-20T15:49:04;7.60;99.90
6758;DHT22;3416;53.074;8.822;2023-12-20T15:51:32;7.50;99.90
6758;DHT22;3416;53.074;8.822;2023-12-20T15:54:01;7.50;99.90
6758;DHT22;3416;53.074;8.822;2023-12-20T15:56:33;7.60;99.90
6758;DHT22;3416;53.074;8.822;2023-12-20T15:59:02;7.50;99.90
6758;DHT22;3416;53.074;8.822;2023-12-20T16:01:29;7.40;99.90
6758;DHT22;3416;53.074;8.822;2023-12-20T16:03:56;7.40;99.90
6758;DHT22;3416;53.074;8.822;2023-12-20T16:06:23;7.40;99.90
6758;DHT22;3416;53.074;8.822;2023-12-20T16:08:50;7.50;99.90
6758;DHT22;3416;53.074;8.822;2023-12-20T16:11:19;7.40;99.90
6758;DHT22;3416;53.074;8.822;2023-12-20T16:13:46;7.50;99.90
6758;DHT22;3416;53.074;8.822;2023-12-20T16:16:13;7.50;99.90
6758;DHT22;3416;53.074;8.822;2023-12-20T16:18:40;7.50;99.90
6758;DHT22;3416;53.074;8.822;2023-12-20T16:21:07;7.50;99.90